Terminal Aerodrome Forecast
Issued by NWS

Home | Current Version | Previous Version | Graphics & Text | Print | Product List | Glossary On
Versions: 1 2 3 4 5 6 7 8 9 10 11 12 13 14 15 16
000
FTUS43 KOAX 210500 RRA
TAFCDR
TAF
KCDR 210547Z 2106/2206 20010KT P6SM SCT250
     FM211600 28012KT P6SM SCT250
     FM220200 28008KT P6SM BKN250=

USA.gov is the U.S. government's official web portal to all federal, state and local government web resources and services.